sensor_id;sensor_type;location;lat;lon;timestamp;temperature;humidity
66708;DHT22;53622;0.000;0.000;2023-10-09T00:00:34;23.10;68.80
66708;DHT22;53622;0.000;0.000;2023-10-09T00:03:29;23.10;68.70
66708;DHT22;53622;0.000;0.000;2023-10-09T00:05:59;23.10;68.80
66708;DHT22;53622;0.000;0.000;2023-10-09T00:08:31;23.00;68.70
66708;DHT22;53622;0.000;0.000;2023-10-09T00:11:03;23.00;68.60
66708;DHT22;53622;0.000;0.000;2023-10-09T00:13:44;23.00;68.40
66708;DHT22;53622;0.000;0.000;2023-10-09T00:16:21;23.00;68.50
66708;DHT22;53622;0.000;0.000;2023-10-09T00:19:03;23.00;68.40
66708;DHT22;53622;0.000;0.000;2023-10-09T00:21:42;23.00;68.30
66708;DHT22;53622;0.000;0.000;2023-10-09T00:24:11;23.00;68.30
66708;DHT22;53622;0.000;0.000;2023-10-09T00:26:53;23.00;68.30
66708;DHT22;53622;0.000;0.000;2023-10-09T00:29:29;23.00;68.20
66708;DHT22;53622;0.000;0.000;2023-10-09T00:32:02;23.00;68.20
66708;DHT22;53622;0.000;0.000;2023-10-09T00:34:41;23.00;68.20
66708;DHT22;53622;0.000;0.000;2023-10-09T00:37:11;23.00;68.00
66708;DHT22;53622;0.000;0.000;2023-10-09T00:39:43;23.00;68.00
66708;DHT22;53622;0.000;0.000;2023-10-09T00:42:14;23.00;68.10
66708;DHT22;53622;0.000;0.000;2023-10-09T00:44:53;23.00;67.90
66708;DHT22;53622;0.000;0.000;2023-10-09T00:47:24;23.00;67.70
66708;DHT22;53622;0.000;0.000;2023-10-09T00:50:03;23.00;67.70
66708;DHT22;53622;0.000;0.000;2023-10-09T00:52:39;23.00;67.60
66708;DHT22;53622;0.000;0.000;2023-10-09T00:55:12;23.00;67.60
66708;DHT22;53622;0.000;0.000;2023-10-09T00:57:45;23.00;67.50
66708;DHT22;53622;0.000;0.000;2023-10-09T01:00:24;23.00;67.60
66708;DHT22;53622;0.000;0.000;2023-10-09T01:03:01;22.90;67.40
66708;DHT22;53622;0.000;0.000;2023-10-09T01:05:49;22.90;67.30
66708;DHT22;53622;0.000;0.000;2023-10-09T01:08:25;22.90;67.30
66708;DHT22;53622;0.000;0.000;2023-10-09T01:10:58;22.90;67.30
66708;DHT22;53622;0.000;0.000;2023-10-09T01:13:40;22.90;67.20
66708;DHT22;53622;0.000;0.000;2023-10-09T01:16:22;22.90;67.20
66708;DHT22;53622;0.000;0.000;2023-10-09T01:18:52;22.90;67.10
66708;DHT22;53622;0.000;0.000;2023-10-09T01:21:24;22.90;67.00
66708;DHT22;53622;0.000;0.000;2023-10-09T01:23:56;22.90;67.00
66708;DHT22;53622;0.000;0.000;2023-10-09T01:26:33;22.90;66.90
66708;DHT22;53622;0.000;0.000;2023-10-09T01:29:07;22.90;66.90
66708;DHT22;53622;0.000;0.000;2023-10-09T01:31:42;22.90;66.90
66708;DHT22;53622;0.000;0.000;2023-10-09T01:34:21;22.90;66.80
66708;DHT22;53622;0.000;0.000;2023-10-09T01:37:07;22.90;66.80
66708;DHT22;53622;0.000;0.000;2023-10-09T01:39:41;22.90;66.80
66708;DHT22;53622;0.000;0.000;2023-10-09T01:42:10;22.90;66.80
66708;DHT22;53622;0.000;0.000;2023-10-09T01:44:51;22.90;66.80
66708;DHT22;53622;0.000;0.000;2023-10-09T01:47:20;22.90;66.70
66708;DHT22;53622;0.000;0.000;2023-10-09T01:49:49;22.90;66.60
66708;DHT22;53622;0.000;0.000;2023-10-09T01:52:20;22.90;66.60
66708;DHT22;53622;0.000;0.000;2023-10-09T01:54:52;22.90;66.60
66708;DHT22;53622;0.000;0.000;2023-10-09T01:57:21;22.90;66.50
66708;DHT22;53622;0.000;0.000;2023-10-09T01:59:52;22.90;66.40
66708;DHT22;53622;0.000;0.000;2023-10-09T02:02:22;22.90;66.40
66708;DHT22;53622;0.000;0.000;2023-10-09T02:04:56;22.90;66.40
66708;DHT22;53622;0.000;0.000;2023-10-09T02:07:35;22.90;66.40
66708;DHT22;53622;0.000;0.000;2023-10-09T02:10:14;22.80;66.30
66708;DHT22;53622;0.000;0.000;2023-10-09T02:13:01;22.80;66.30
66708;DHT22;53622;0.000;0.000;2023-10-09T02:15:35;22.80;66.30
66708;DHT22;53622;0.000;0.000;2023-10-09T02:18:20;22.80;66.20
66708;DHT22;53622;0.000;0.000;2023-10-09T02:21:07;22.80;66.20
66708;DHT22;53622;0.000;0.000;2023-10-09T02:23:42;22.80;66.20
66708;DHT22;53622;0.000;0.000;2023-10-09T02:26:19;22.80;66.10
66708;DHT22;53622;0.000;0.000;2023-10-09T02:28:54;22.80;66.10
66708;DHT22;53622;0.000;0.000;2023-10-09T02:31:28;22.80;66.00
66708;DHT22;53622;0.000;0.000;2023-10-09T02:34:04;22.80;65.90
66708;DHT22;53622;0.000;0.000;2023-10-09T02:36:40;22.80;66.00
66708;DHT22;53622;0.000;0.000;2023-10-09T02:39:11;22.80;65.80
66708;DHT22;53622;0.000;0.000;2023-10-09T02:41:53;22.80;65.80
66708;DHT22;53622;0.000;0.000;2023-10-09T02:44:28;22.80;65.80
66708;DHT22;53622;0.000;0.000;2023-10-09T02:47:02;22.80;65.90
66708;DHT22;53622;0.000;0.000;2023-10-09T02:49:35;22.80;65.80
66708;DHT22;53622;0.000;0.000;2023-10-09T02:52:05;22.80;65.70
66708;DHT22;53622;0.000;0.000;2023-10-09T02:54:35;22.80;65.70
66708;DHT22;53622;0.000;0.000;2023-10-09T02:57:10;22.80;65.70
66708;DHT22;53622;0.000;0.000;2023-10-09T02:59:49;22.80;65.60
66708;DHT22;53622;0.000;0.000;2023-10-09T03:02:20;22.80;65.60
66708;DHT22;53622;0.000;0.000;2023-10-09T03:04:51;22.80;65.60
66708;DHT22;53622;0.000;0.000;2023-10-09T03:07:23;22.80;65.50
66708;DHT22;53622;0.000;0.000;2023-10-09T03:09:52;22.80;65.50
66708;DHT22;53622;0.000;0.000;2023-10-09T03:12:22;22.70;65.40
66708;DHT22;53622;0.000;0.000;2023-10-09T03:14:54;22.80;65.40
66708;DHT22;53622;0.000;0.000;2023-10-09T03:17:29;22.80;65.30
66708;DHT22;53622;0.000;0.000;2023-10-09T03:20:03;22.80;65.30
66708;DHT22;53622;0.000;0.000;2023-10-09T03:22:40;22.80;65.10
66708;DHT22;53622;0.000;0.000;2023-10-09T03:25:10;22.80;65.10
66708;DHT22;53622;0.000;0.000;2023-10-09T03:27:44;22.80;65.00
66708;DHT22;53622;0.000;0.000;2023-10-09T03:30:14;22.80;64.90
66708;DHT22;53622;0.000;0.000;2023-10-09T03:32:50;22.80;64.90
66708;DHT22;53622;0.000;0.000;2023-10-09T03:35:20;22.80;65.60
66708;DHT22;53622;0.000;0.000;2023-10-09T03:37:55;22.80;64.80
66708;DHT22;53622;0.000;0.000;2023-10-09T03:40:28;22.80;64.80
66708;DHT22;53622;0.000;0.000;2023-10-09T03:43:01;22.80;64.70
66708;DHT22;53622;0.000;0.000;2023-10-09T03:45:32;22.80;64.60
66708;DHT22;53622;0.000;0.000;2023-10-09T03:48:03;22.80;64.60
66708;DHT22;53622;0.000;0.000;2023-10-09T03:50:39;22.80;64.50
66708;DHT22;53622;0.000;0.000;2023-10-09T03:53:10;22.80;64.50
66708;DHT22;53622;0.000;0.000;2023-10-09T03:55:40;22.80;64.40
66708;DHT22;53622;0.000;0.000;2023-10-09T03:58:11;22.80;64.40
66708;DHT22;53622;0.000;0.000;2023-10-09T04:00:41;22.80;64.20
66708;DHT22;53622;0.000;0.000;2023-10-09T04:03:15;22.80;64.20
66708;DHT22;53622;0.000;0.000;2023-10-09T04:05:44;22.80;64.20
66708;DHT22;53622;0.000;0.000;2023-10-09T04:08:13;22.80;64.20
66708;DHT22;53622;0.000;0.000;2023-10-09T04:10:47;22.80;64.20
66708;DHT22;53622;0.000;0.000;2023-10-09T04:13:26;22.80;64.10
66708;DHT22;53622;0.000;0.000;2023-10-09T04:16:02;22.80;64.00
66708;DHT22;53622;0.000;0.000;2023-10-09T04:18:38;22.80;63.90
66708;DHT22;53622;0.000;0.000;2023-10-09T04:21:09;22.80;64.00
66708;DHT22;53622;0.000;0.000;2023-10-09T04:23:47;22.70;64.10
66708;DHT22;53622;0.000;0.000;2023-10-09T04:26:33;22.70;64.20
66708;DHT22;53622;0.000;0.000;2023-10-09T04:29:06;22.70;64.20
66708;DHT22;53622;0.000;0.000;2023-10-09T04:31:38;22.70;64.00
66708;DHT22;53622;0.000;0.000;2023-10-09T04:34:07;22.80;64.10
66708;DHT22;53622;0.000;0.000;2023-10-09T04:36:51;22.80;64.30
66708;DHT22;53622;0.000;0.000;2023-10-09T04:39:24;22.80;64.30
66708;DHT22;53622;0.000;0.000;2023-10-09T04:42:16;22.80;64.30
66708;DHT22;53622;0.000;0.000;2023-10-09T04:44:49;22.80;64.20
66708;DHT22;53622;0.000;0.000;2023-10-09T04:47:36;22.80;64.20
66708;DHT22;53622;0.000;0.000;2023-10-09T04:50:06;22.90;64.30
66708;DHT22;53622;0.000;0.000;2023-10-09T04:52:38;22.90;64.30
66708;DHT22;53622;0.000;0.000;2023-10-09T04:55:21;22.90;64.30
66708;DHT22;53622;0.000;0.000;2023-10-09T04:57:53;22.80;64.30
66708;DHT22;53622;0.000;0.000;2023-10-09T05:00:39;22.80;64.50
66708;DHT22;53622;0.000;0.000;2023-10-09T05:03:30;22.80;64.40
66708;DHT22;53622;0.000;0.000;2023-10-09T05:06:12;22.80;64.30
66708;DHT22;53622;0.000;0.000;2023-10-09T05:09:10;22.80;64.20
66708;DHT22;53622;0.000;0.000;2023-10-09T05:11:42;22.80;64.20
66708;DHT22;53622;0.000;0.000;2023-10-09T05:14:43;22.80;64.30
66708;DHT22;53622;0.000;0.000;2023-10-09T05:17:35;22.80;64.10
66708;DHT22;53622;0.000;0.000;2023-10-09T05:20:07;22.80;64.20
66708;DHT22;53622;0.000;0.000;2023-10-09T05:22:56;22.80;64.10
66708;DHT22;53622;0.000;0.000;2023-10-09T05:25:48;22.80;64.20
66708;DHT22;53622;0.000;0.000;2023-10-09T05:28:23;22.80;64.20
66708;DHT22;53622;0.000;0.000;2023-10-09T05:30:59;22.80;64.20
66708;DHT22;53622;0.000;0.000;2023-10-09T05:33:37;22.80;64.10
66708;DHT22;53622;0.000;0.000;2023-10-09T05:36:07;22.80;65.00
66708;DHT22;53622;0.000;0.000;2023-10-09T05:38:49;22.80;64.20
66708;DHT22;53622;0.000;0.000;2023-10-09T05:41:26;22.80;64.10
66708;DHT22;53622;0.000;0.000;2023-10-09T05:44:12;22.70;64.20
66708;DHT22;53622;0.000;0.000;2023-10-09T05:47:04;22.80;64.40
66708;DHT22;53622;0.000;0.000;2023-10-09T05:49:58;22.80;64.50
66708;DHT22;53622;0.000;0.000;2023-10-09T05:52:40;22.80;64.50
66708;DHT22;53622;0.000;0.000;2023-10-09T05:55:31;22.80;64.30
66708;DHT22;53622;0.000;0.000;2023-10-09T05:58:32;22.80;64.40
66708;DHT22;53622;0.000;0.000;2023-10-09T06:01:18;22.80;64.40
66708;DHT22;53622;0.000;0.000;2023-10-09T06:04:01;22.80;62.80
66708;DHT22;53622;0.000;0.000;2023-10-09T06:06:45;22.80;63.50
66708;DHT22;53622;0.000;0.000;2023-10-09T06:09:15;22.80;63.40
66708;DHT22;53622;0.000;0.000;2023-10-09T06:12:01;22.80;64.00
66708;DHT22;53622;0.000;0.000;2023-10-09T06:14:57;22.80;64.20
66708;DHT22;53622;0.000;0.000;2023-10-09T06:17:46;22.70;64.30
66708;DHT22;53622;0.000;0.000;2023-10-09T06:20:18;22.70;64.30
66708;DHT22;53622;0.000;0.000;2023-10-09T06:23:29;22.70;64.30
66708;DHT22;53622;0.000;0.000;2023-10-09T06:26:24;22.70;64.40
66708;DHT22;53622;0.000;0.000;2023-10-09T06:28:54;22.70;64.30
66708;DHT22;53622;0.000;0.000;2023-10-09T06:31:36;22.70;64.30
66708;DHT22;53622;0.000;0.000;2023-10-09T06:34:27;22.70;64.30
66708;DHT22;53622;0.000;0.000;2023-10-09T06:37:03;22.70;64.30
66708;DHT22;53622;0.000;0.000;2023-10-09T06:39:45;22.70;64.30
66708;DHT22;53622;0.000;0.000;2023-10-09T06:42:43;22.70;64.20
66708;DHT22;53622;0.000;0.000;2023-10-09T06:45:20;22.70;64.30
66708;DHT22;53622;0.000;0.000;2023-10-09T06:47:55;22.70;64.30
66708;DHT22;53622;0.000;0.000;2023-10-09T06:50:27;22.70;64.20
66708;DHT22;53622;0.000;0.000;2023-10-09T06:53:17;22.70;64.10
66708;DHT22;53622;0.000;0.000;2023-10-09T06:55:55;22.70;64.20
66708;DHT22;53622;0.000;0.000;2023-10-09T06:58:33;22.70;64.10
66708;DHT22;53622;0.000;0.000;2023-10-09T07:01:10;22.70;64.10
66708;DHT22;53622;0.000;0.000;2023-10-09T07:04:08;22.70;64.10
66708;DHT22;53622;0.000;0.000;2023-10-09T07:06:47;22.70;64.20
66708;DHT22;53622;0.000;0.000;2023-10-09T07:09:19;22.70;64.10
66708;DHT22;53622;0.000;0.000;2023-10-09T07:11:50;22.70;64.00
66708;DHT22;53622;0.000;0.000;2023-10-09T07:14:27;22.70;64.00
66708;DHT22;53622;0.000;0.000;2023-10-09T07:17:19;22.70;64.10
66708;DHT22;53622;0.000;0.000;2023-10-09T07:20:11;22.70;64.00
66708;DHT22;53622;0.000;0.000;2023-10-09T07:23:03;22.60;64.00
66708;DHT22;53622;0.000;0.000;2023-10-09T07:25:45;22.60;64.00
66708;DHT22;53622;0.000;0.000;2023-10-09T07:28:29;22.70;64.00
66708;DHT22;53622;0.000;0.000;2023-10-09T07:31:04;22.60;63.90
66708;DHT22;53622;0.000;0.000;2023-10-09T07:33:37;22.60;63.80
66708;DHT22;53622;0.000;0.000;2023-10-09T07:36:25;22.70;63.90
66708;DHT22;53622;0.000;0.000;2023-10-09T07:39:05;22.60;64.60
66708;DHT22;53622;0.000;0.000;2023-10-09T07:41:42;22.70;63.90
66708;DHT22;53622;0.000;0.000;2023-10-09T07:44:31;22.60;64.60
66708;DHT22;53622;0.000;0.000;2023-10-09T07:47:05;22.70;63.80
66708;DHT22;53622;0.000;0.000;2023-10-09T07:49:47;22.60;63.80
66708;DHT22;53622;0.000;0.000;2023-10-09T07:52:26;22.60;63.70
66708;DHT22;53622;0.000;0.000;2023-10-09T07:54:57;22.70;63.80
66708;DHT22;53622;0.000;0.000;2023-10-09T07:57:34;22.60;63.80
66708;DHT22;53622;0.000;0.000;2023-10-09T08:00:12;22.70;63.80
66708;DHT22;53622;0.000;0.000;2023-10-09T08:03:02;22.70;63.70
66708;DHT22;53622;0.000;0.000;2023-10-09T08:05:52;22.70;64.60
66708;DHT22;53622;0.000;0.000;2023-10-09T08:08:34;22.70;63.80
66708;DHT22;53622;0.000;0.000;2023-10-09T08:11:29;22.70;63.70
66708;DHT22;53622;0.000;0.000;2023-10-09T08:14:27;22.70;63.80
66708;DHT22;53622;0.000;0.000;2023-10-09T08:17:17;22.70;63.90
66708;DHT22;53622;0.000;0.000;2023-10-09T08:19:49;22.70;63.80
66708;DHT22;53622;0.000;0.000;2023-10-09T08:22:26;22.70;63.80
66708;DHT22;53622;0.000;0.000;2023-10-09T08:25:18;22.70;63.70
66708;DHT22;53622;0.000;0.000;2023-10-09T08:27:58;22.70;63.70
66708;DHT22;53622;0.000;0.000;2023-10-09T08:30:46;22.70;63.60
66708;DHT22;53622;0.000;0.000;2023-10-09T08:33:32;22.80;63.60
66708;DHT22;53622;0.000;0.000;2023-10-09T08:36:11;22.80;63.50
66708;DHT22;53622;0.000;0.000;2023-10-09T08:38:50;22.80;63.50
66708;DHT22;53622;0.000;0.000;2023-10-09T08:41:25;22.80;63.50
66708;DHT22;53622;0.000;0.000;2023-10-09T08:43:58;22.80;63.50
66708;DHT22;53622;0.000;0.000;2023-10-09T08:46:27;22.80;63.40
66708;DHT22;53622;0.000;0.000;2023-10-09T08:48:58;22.80;63.30
66708;DHT22;53622;0.000;0.000;2023-10-09T08:51:28;22.80;63.30
66708;DHT22;53622;0.000;0.000;2023-10-09T08:53:58;22.90;63.30
66708;DHT22;53622;0.000;0.000;2023-10-09T08:56:27;22.90;63.30
66708;DHT22;53622;0.000;0.000;2023-10-09T08:58:57;22.90;63.30
66708;DHT22;53622;0.000;0.000;2023-10-09T09:01:27;22.90;63.40
66708;DHT22;53622;0.000;0.000;2023-10-09T09:04:01;22.90;63.40
66708;DHT22;53622;0.000;0.000;2023-10-09T09:06:36;22.90;63.30
66708;DHT22;53622;0.000;0.000;2023-10-09T09:09:12;22.90;63.20
66708;DHT22;53622;0.000;0.000;2023-10-09T09:11:43;22.90;64.00
66708;DHT22;53622;0.000;0.000;2023-10-09T09:14:17;22.90;63.20
66708;DHT22;53622;0.000;0.000;2023-10-09T09:16:49;22.90;63.20
66708;DHT22;53622;0.000;0.000;2023-10-09T09:19:31;22.90;63.20
66708;DHT22;53622;0.000;0.000;2023-10-09T09:22:00;22.90;63.20
66708;DHT22;53622;0.000;0.000;2023-10-09T09:24:39;22.90;63.30
66708;DHT22;53622;0.000;0.000;2023-10-09T09:27:46;22.90;63.30
66708;DHT22;53622;0.000;0.000;2023-10-09T09:30:24;22.90;63.30
66708;DHT22;53622;0.000;0.000;2023-10-09T09:33:00;22.80;63.30
66708;DHT22;53622;0.000;0.000;2023-10-09T09:35:58;22.80;63.30
66708;DHT22;53622;0.000;0.000;2023-10-09T09:38:27;22.80;63.40
66708;DHT22;53622;0.000;0.000;2023-10-09T09:40:56;22.80;63.40
66708;DHT22;53622;0.000;0.000;2023-10-09T09:43:31;22.80;63.40
66708;DHT22;53622;0.000;0.000;2023-10-09T09:46:03;22.80;63.40
66708;DHT22;53622;0.000;0.000;2023-10-09T09:48:38;22.80;63.40
66708;DHT22;53622;0.000;0.000;2023-10-09T09:51:14;22.80;63.40
66708;DHT22;53622;0.000;0.000;2023-10-09T09:53:46;22.80;63.40
66708;DHT22;53622;0.000;0.000;2023-10-09T09:56:20;22.80;63.40
66708;DHT22;53622;0.000;0.000;2023-10-09T09:58:50;22.80;63.40
66708;DHT22;53622;0.000;0.000;2023-10-09T10:01:24;22.80;63.40
66708;DHT22;53622;0.000;0.000;2023-10-09T10:03:58;22.80;63.30
66708;DHT22;53622;0.000;0.000;2023-10-09T10:06:30;22.80;63.30
66708;DHT22;53622;0.000;0.000;2023-10-09T10:09:00;22.80;63.40
66708;DHT22;53622;0.000;0.000;2023-10-09T10:11:43;22.80;63.40
66708;DHT22;53622;0.000;0.000;2023-10-09T10:14:13;22.80;63.30
66708;DHT22;53622;0.000;0.000;2023-10-09T10:17:06;22.80;63.40
66708;DHT22;53622;0.000;0.000;2023-10-09T10:20:04;22.80;63.40
66708;DHT22;53622;0.000;0.000;2023-10-09T10:22:48;22.80;63.40
66708;DHT22;53622;0.000;0.000;2023-10-09T10:25:34;22.80;63.40
66708;DHT22;53622;0.000;0.000;2023-10-09T10:28:19;22.80;63.40
66708;DHT22;53622;0.000;0.000;2023-10-09T10:31:07;22.80;63.40
66708;DHT22;53622;0.000;0.000;2023-10-09T10:34:05;22.80;63.50
66708;DHT22;53622;0.000;0.000;2023-10-09T10:36:38;22.80;63.50
66708;DHT22;53622;0.000;0.000;2023-10-09T10:39:13;22.80;63.40
66708;DHT22;53622;0.000;0.000;2023-10-09T10:41:56;22.80;63.30
66708;DHT22;53622;0.000;0.000;2023-10-09T10:44:28;22.80;63.40
66708;DHT22;53622;0.000;0.000;2023-10-09T10:47:07;22.80;63.40
66708;DHT22;53622;0.000;0.000;2023-10-09T10:49:51;22.80;63.40
66708;DHT22;53622;0.000;0.000;2023-10-09T10:52:26;22.80;63.40
66708;DHT22;53622;0.000;0.000;2023-10-09T10:55:13;22.80;63.40
66708;DHT22;53622;0.000;0.000;2023-10-09T10:58:02;22.80;63.40
66708;DHT22;53622;0.000;0.000;2023-10-09T11:00:38;22.80;63.40
66708;DHT22;53622;0.000;0.000;2023-10-09T11:03:39;22.80;63.50
66708;DHT22;53622;0.000;0.000;2023-10-09T11:06:27;22.80;63.50
66708;DHT22;53622;0.000;0.000;2023-10-09T11:09:06;22.80;63.50
66708;DHT22;53622;0.000;0.000;2023-10-09T11:11:51;22.80;63.50
66708;DHT22;53622;0.000;0.000;2023-10-09T11:14:23;22.90;63.50
66708;DHT22;53622;0.000;0.000;2023-10-09T11:16:52;22.90;63.50
66708;DHT22;53622;0.000;0.000;2023-10-09T11:19:26;22.80;63.40
66708;DHT22;53622;0.000;0.000;2023-10-09T11:22:00;22.90;63.50
66708;DHT22;53622;0.000;0.000;2023-10-09T11:24:48;22.90;63.40
66708;DHT22;53622;0.000;0.000;2023-10-09T11:27:41;22.90;63.40
66708;DHT22;53622;0.000;0.000;2023-10-09T11:30:18;22.90;63.40
66708;DHT22;53622;0.000;0.000;2023-10-09T11:33:06;22.90;63.40
66708;DHT22;53622;0.000;0.000;2023-10-09T11:35:54;22.90;63.40
66708;DHT22;53622;0.000;0.000;2023-10-09T11:38:24;22.90;63.40
66708;DHT22;53622;0.000;0.000;2023-10-09T11:40:53;22.90;63.30
66708;DHT22;53622;0.000;0.000;2023-10-09T11:43:48;22.90;63.30
66708;DHT22;53622;0.000;0.000;2023-10-09T11:46:20;22.90;63.30
66708;DHT22;53622;0.000;0.000;2023-10-09T11:49:08;22.90;63.30
66708;DHT22;53622;0.000;0.000;2023-10-09T11:52:05;22.90;63.20
66708;DHT22;53622;0.000;0.000;2023-10-09T11:54:52;22.90;63.30
66708;DHT22;53622;0.000;0.000;2023-10-09T11:57:25;22.90;63.30
66708;DHT22;53622;0.000;0.000;2023-10-09T12:00:02;22.90;63.30
66708;DHT22;53622;0.000;0.000;2023-10-09T12:02:39;22.90;63.30
66708;DHT22;53622;0.000;0.000;2023-10-09T12:05:12;22.90;63.20
66708;DHT22;53622;0.000;0.000;2023-10-09T12:07:45;22.90;63.30
66708;DHT22;53622;0.000;0.000;2023-10-09T12:10:14;22.90;63.30
66708;DHT22;53622;0.000;0.000;2023-10-09T12:12:52;22.90;63.10
66708;DHT22;53622;0.000;0.000;2023-10-09T12:15:22;23.00;63.20
66708;DHT22;53622;0.000;0.000;2023-10-09T12:17:51;22.90;63.10
66708;DHT22;53622;0.000;0.000;2023-10-09T12:20:21;23.00;63.20
66708;DHT22;53622;0.000;0.000;2023-10-09T12:22:59;23.00;63.20
66708;DHT22;53622;0.000;0.000;2023-10-09T12:25:29;23.00;63.20
66708;DHT22;53622;0.000;0.000;2023-10-09T12:27:59;23.00;63.10
66708;DHT22;53622;0.000;0.000;2023-10-09T12:30:31;22.90;63.10
66708;DHT22;53622;0.000;0.000;2023-10-09T12:33:08;23.00;63.10
66708;DHT22;53622;0.000;0.000;2023-10-09T12:35:38;23.00;63.10
66708;DHT22;53622;0.000;0.000;2023-10-09T12:38:07;23.00;63.10
66708;DHT22;53622;0.000;0.000;2023-10-09T12:40:39;23.00;63.10
66708;DHT22;53622;0.000;0.000;2023-10-09T12:43:18;23.00;63.10
66708;DHT22;53622;0.000;0.000;2023-10-09T12:45:51;23.00;63.10
66708;DHT22;53622;0.000;0.000;2023-10-09T12:48:24;23.00;63.00
66708;DHT22;53622;0.000;0.000;2023-10-09T12:50:53;23.00;63.00
66708;DHT22;53622;0.000;0.000;2023-10-09T12:53:22;23.00;63.00
66708;DHT22;53622;0.000;0.000;2023-10-09T12:55:58;23.00;63.00
66708;DHT22;53622;0.000;0.000;2023-10-09T12:58:27;23.00;62.90
66708;DHT22;53622;0.000;0.000;2023-10-09T13:00:58;23.00;62.90
66708;DHT22;53622;0.000;0.000;2023-10-09T13:03:37;23.00;63.00
66708;DHT22;53622;0.000;0.000;2023-10-09T13:06:07;23.10;63.00
66708;DHT22;53622;0.000;0.000;2023-10-09T13:08:38;23.00;62.90
66708;DHT22;53622;0.000;0.000;2023-10-09T13:11:10;23.00;63.00
66708;DHT22;53622;0.000;0.000;2023-10-09T13:13:41;23.00;63.00
66708;DHT22;53622;0.000;0.000;2023-10-09T13:16:13;23.00;62.90
66708;DHT22;53622;0.000;0.000;2023-10-09T13:18:51;23.00;62.90
66708;DHT22;53622;0.000;0.000;2023-10-09T13:21:21;23.00;62.90
66708;DHT22;53622;0.000;0.000;2023-10-09T13:23:51;23.00;63.00
66708;DHT22;53622;0.000;0.000;2023-10-09T13:26:22;23.00;63.00
66708;DHT22;53622;0.000;0.000;2023-10-09T13:29:02;23.00;63.10
66708;DHT22;53622;0.000;0.000;2023-10-09T13:31:33;23.00;63.80
66708;DHT22;53622;0.000;0.000;2023-10-09T13:34:05;23.00;63.00
66708;DHT22;53622;0.000;0.000;2023-10-09T13:36:37;23.00;63.00
66708;DHT22;53622;0.000;0.000;2023-10-09T13:39:07;23.00;63.00
66708;DHT22;53622;0.000;0.000;2023-10-09T13:41:52;23.00;63.00
66708;DHT22;53622;0.000;0.000;2023-10-09T13:44:27;23.00;63.00
66708;DHT22;53622;0.000;0.000;2023-10-09T13:46:59;23.00;62.90
66708;DHT22;53622;0.000;0.000;2023-10-09T13:49:29;23.00;63.00
66708;DHT22;53622;0.000;0.000;2023-10-09T13:51:59;23.00;63.00
66708;DHT22;53622;0.000;0.000;2023-10-09T13:54:30;23.00;62.90
66708;DHT22;53622;0.000;0.000;2023-10-09T13:57:08;23.00;62.90
66708;DHT22;53622;0.000;0.000;2023-10-09T13:59:38;23.00;62.90
66708;DHT22;53622;0.000;0.000;2023-10-09T14:02:12;23.00;62.90
66708;DHT22;53622;0.000;0.000;2023-10-09T14:04:46;23.00;63.00
66708;DHT22;53622;0.000;0.000;2023-10-09T14:07:16;23.00;63.10
66708;DHT22;53622;0.000;0.000;2023-10-09T14:09:45;23.00;63.00
66708;DHT22;53622;0.000;0.000;2023-10-09T14:12:23;23.00;63.10
66708;DHT22;53622;0.000;0.000;2023-10-09T14:14:57;23.00;63.00
66708;DHT22;53622;0.000;0.000;2023-10-09T14:17:29;23.00;63.10
66708;DHT22;53622;0.000;0.000;2023-10-09T14:19:58;23.00;63.10
66708;DHT22;53622;0.000;0.000;2023-10-09T14:22:48;23.00;63.10
66708;DHT22;53622;0.000;0.000;2023-10-09T14:25:20;23.00;63.10
66708;DHT22;53622;0.000;0.000;2023-10-09T14:27:49;23.00;63.10
66708;DHT22;53622;0.000;0.000;2023-10-09T14:30:20;23.00;63.10
66708;DHT22;53622;0.000;0.000;2023-10-09T14:33:00;23.00;63.20
66708;DHT22;53622;0.000;0.000;2023-10-09T14:35:32;23.00;63.20
66708;DHT22;53622;0.000;0.000;2023-10-09T14:38:02;23.00;63.10
66708;DHT22;53622;0.000;0.000;2023-10-09T14:40:41;23.00;63.10
66708;DHT22;53622;0.000;0.000;2023-10-09T14:43:12;23.00;63.10
66708;DHT22;53622;0.000;0.000;2023-10-09T14:45:48;23.00;63.20
66708;DHT22;53622;0.000;0.000;2023-10-09T14:48:19;23.00;63.20
66708;DHT22;53622;0.000;0.000;2023-10-09T14:50:53;23.00;63.20
66708;DHT22;53622;0.000;0.000;2023-10-09T14:53:25;23.00;63.20
66708;DHT22;53622;0.000;0.000;2023-10-09T14:55:55;23.00;63.20
66708;DHT22;53622;0.000;0.000;2023-10-09T14:58:24;23.00;63.20
66708;DHT22;53622;0.000;0.000;2023-10-09T15:00:53;23.00;63.10
66708;DHT22;53622;0.000;0.000;2023-10-09T15:03:23;23.00;63.20
66708;DHT22;53622;0.000;0.000;2023-10-09T15:05:58;23.00;63.20
66708;DHT22;53622;0.000;0.000;2023-10-09T15:08:27;23.00;63.20
66708;DHT22;53622;0.000;0.000;2023-10-09T15:10:57;23.00;63.30
66708;DHT22;53622;0.000;0.000;2023-10-09T15:13:26;23.10;63.30
66708;DHT22;53622;0.000;0.000;2023-10-09T15:15:56;23.10;63.40
66708;DHT22;53622;0.000;0.000;2023-10-09T15:18:28;23.20;63.60
66708;DHT22;53622;0.000;0.000;2023-10-09T15:21:00;23.20;63.50
66708;DHT22;53622;0.000;0.000;2023-10-09T15:23:29;23.20;63.50
66708;DHT22;53622;0.000;0.000;2023-10-09T15:26:00;23.20;63.40
66708;DHT22;53622;0.000;0.000;2023-10-09T15:28:29;23.20;63.40
66708;DHT22;53622;0.000;0.000;2023-10-09T15:31:00;23.30;63.60
66708;DHT22;53622;0.000;0.000;2023-10-09T15:33:30;23.30;63.50
66708;DHT22;53622;0.000;0.000;2023-10-09T15:36:10;23.30;63.50
66708;DHT22;53622;0.000;0.000;2023-10-09T15:38:39;23.30;63.50
66708;DHT22;53622;0.000;0.000;2023-10-09T15:41:08;23.30;63.40
66708;DHT22;53622;0.000;0.000;2023-10-09T15:43:38;23.30;63.40
66708;DHT22;53622;0.000;0.000;2023-10-09T15:46:13;23.40;63.50
66708;DHT22;53622;0.000;0.000;2023-10-09T15:48:44;23.40;63.50
66708;DHT22;53622;0.000;0.000;2023-10-09T15:51:14;23.40;63.50
66708;DHT22;53622;0.000;0.000;2023-10-09T15:53:43;23.40;63.50
66708;DHT22;53622;0.000;0.000;2023-10-09T15:56:13;23.40;63.50
66708;DHT22;53622;0.000;0.000;2023-10-09T15:58:45;23.40;63.50
66708;DHT22;53622;0.000;0.000;2023-10-09T16:01:17;23.40;63.60
66708;DHT22;53622;0.000;0.000;2023-10-09T16:03:48;23.40;63.60
66708;DHT22;53622;0.000;0.000;2023-10-09T16:06:18;23.30;63.80
66708;DHT22;53622;0.000;0.000;2023-10-09T16:08:48;23.30;63.80
66708;DHT22;53622;0.000;0.000;2023-10-09T16:11:18;23.30;63.70
66708;DHT22;53622;0.000;0.000;2023-10-09T16:13:47;23.30;63.80
66708;DHT22;53622;0.000;0.000;2023-10-09T16:16:24;23.30;63.80
66708;DHT22;53622;0.000;0.000;2023-10-09T16:18:57;23.40;63.80
66708;DHT22;53622;0.000;0.000;2023-10-09T16:21:27;23.30;63.80
66708;DHT22;53622;0.000;0.000;2023-10-09T16:23:57;23.30;63.90
66708;DHT22;53622;0.000;0.000;2023-10-09T16:26:27;23.30;63.90
66708;DHT22;53622;0.000;0.000;2023-10-09T16:28:56;23.30;64.00
66708;DHT22;53622;0.000;0.000;2023-10-09T16:31:27;23.30;64.00
66708;DHT22;53622;0.000;0.000;2023-10-09T16:34:08;23.30;64.10
66708;DHT22;53622;0.000;0.000;2023-10-09T16:36:42;23.30;64.00
66708;DHT22;53622;0.000;0.000;2023-10-09T16:39:11;23.30;64.90
66708;DHT22;53622;0.000;0.000;2023-10-09T16:41:50;23.30;64.30
66708;DHT22;53622;0.000;0.000;2023-10-09T16:44:21;23.30;64.30